Phoenix, Arizona
Traffic Map
Current Weather Conditions
Phoenix, Arizona
Broken Clouds
Broken Clouds
96°
Feels Like: 96°
Wind Chill: 96° Ceiling: 25000
Heat Index: 96° Visibility: 10mi
Dew Point: 52° Wind: 7mph
Humidity: 22% Direction: 360° (N)
Pressure: 29.77in Gusts: 0mph
Raw Report DataKPHX 210151Z 36006KT 10SM SCT080 SCT200 BKN250 36/11 A2977 RMK AO2 SLP063 CB DSNT NE S-W T03560111
Traffic Incident Summary
Active as of:
Severity:
Category:
InformationThere was an issue retrieving the traffic information for this location. Please try a different location or try again shortly.
Advertisements
Track Severe Weather on mobile